EYSA

Šiauliai International Airport

Šiauliai, Lithuania
METAR EYSA 201250Z VRB01KT 9000 -SN OVC007 M02/M03 Q1007 R32R/590195 R32L/590194 GRN NOSIG
Observed Flight Rules
Jan-20 @ 12:50 UTC (14 minutes ago) Instrument Flight Rules
Wind Visibility Clouds Conditions
Variable at 1 knots 8,996 meters
  • Overcast at 700' AGL
  • Light Snow
Temperatures Readings
Current -2°C / 28°F
Dewpoint -3°C / 27°F
Humidity 93%
Altimeter 29.73" Hg
Pressure 1007 hPa
Elevation 135
METAR EYSA 201250Z VRB01KT 9000 -SN OVC007 M02/M03 Q1007 R32R/590195 R32L/590194 GRN NOSIG
Observed Flight Rules
Jan-20 @ 12:50 UTC
(14 minutes ago)
IFR
Wind Visibility
Variable at 1 knots 8,996 meters
Clouds
  • Overcast at 700' AGL
Conditions
  • Light Snow
Temperature Dewpoint
-2°C / 28°F -3°C / 27°F
Humidity Altimeter Pressure
93% 29.73" Hg 1007 hPa